sensor_id;sensor_type;location;lat;lon;timestamp;temperature;humidity
6178;DHT22;3122;48.208;11.174;2023-06-26T00:04:32;17.60;1.00
6178;DHT22;3122;48.208;11.174;2023-06-26T00:09:33;17.70;1.00
6178;DHT22;3122;48.208;11.174;2023-06-26T00:14:33;17.70;1.00
6178;DHT22;3122;48.208;11.174;2023-06-26T00:19:34;17.70;1.00
6178;DHT22;3122;48.208;11.174;2023-06-26T00:24:35;17.60;1.00
6178;DHT22;3122;48.208;11.174;2023-06-26T00:29:35;17.40;1.00
6178;DHT22;3122;48.208;11.174;2023-06-26T00:34:36;17.20;1.00
6178;DHT22;3122;48.208;11.174;2023-06-26T00:39:36;17.20;1.00
6178;DHT22;3122;48.208;11.174;2023-06-26T00:44:37;17.20;1.00
6178;DHT22;3122;48.208;11.174;2023-06-26T00:49:37;17.20;1.00
6178;DHT22;3122;48.208;11.174;2023-06-26T00:54:38;17.00;1.00
6178;DHT22;3122;48.208;11.174;2023-06-26T00:59:39;17.10;1.00
6178;DHT22;3122;48.208;11.174;2023-06-26T01:04:40;16.80;1.00
6178;DHT22;3122;48.208;11.174;2023-06-26T01:09:41;16.70;1.00
6178;DHT22;3122;48.208;11.174;2023-06-26T01:14:42;16.70;1.00
6178;DHT22;3122;48.208;11.174;2023-06-26T01:19:43;16.60;1.00
6178;DHT22;3122;48.208;11.174;2023-06-26T01:25:12;16.80;1.00
6178;DHT22;3122;48.208;11.174;2023-06-26T01:30:18;16.70;1.00
6178;DHT22;3122;48.208;11.174;2023-06-26T01:35:19;16.70;1.00
6178;DHT22;3122;48.208;11.174;2023-06-26T01:40:20;16.60;1.00
6178;DHT22;3122;48.208;11.174;2023-06-26T01:45:26;16.60;1.00
6178;DHT22;3122;48.208;11.174;2023-06-26T01:50:30;16.50;1.00
6178;DHT22;3122;48.208;11.174;2023-06-26T02:00:40;16.50;1.00
6178;DHT22;3122;48.208;11.174;2023-06-26T02:05:41;16.40;1.00
6178;DHT22;3122;48.208;11.174;2023-06-26T02:10:41;16.30;1.00
6178;DHT22;3122;48.208;11.174;2023-06-26T02:15:42;16.10;1.00
6178;DHT22;3122;48.208;11.174;2023-06-26T02:20:42;16.30;1.00
6178;DHT22;3122;48.208;11.174;2023-06-26T02:25:44;16.10;1.00
6178;DHT22;3122;48.208;11.174;2023-06-26T02:30:44;16.00;1.00
6178;DHT22;3122;48.208;11.174;2023-06-26T02:35:45;16.00;1.00
6178;DHT22;3122;48.208;11.174;2023-06-26T02:40:45;16.00;1.00
6178;DHT22;3122;48.208;11.174;2023-06-26T02:45:46;16.00;1.00
6178;DHT22;3122;48.208;11.174;2023-06-26T02:50:47;16.00;1.00
6178;DHT22;3122;48.208;11.174;2023-06-26T02:55:47;15.80;1.00
6178;DHT22;3122;48.208;11.174;2023-06-26T03:00:48;15.50;1.00
6178;DHT22;3122;48.208;11.174;2023-06-26T03:05:49;15.60;1.00
6178;DHT22;3122;48.208;11.174;2023-06-26T03:10:49;15.70;1.00
6178;DHT22;3122;48.208;11.174;2023-06-26T03:15:50;15.70;1.00
6178;DHT22;3122;48.208;11.174;2023-06-26T03:20:51;15.50;1.00
6178;DHT22;3122;48.208;11.174;2023-06-26T03:25:51;15.60;1.00
6178;DHT22;3122;48.208;11.174;2023-06-26T03:30:52;15.50;1.00
6178;DHT22;3122;48.208;11.174;2023-06-26T03:35:52;15.60;1.00
6178;DHT22;3122;48.208;11.174;2023-06-26T03:40:53;15.60;1.00
6178;DHT22;3122;48.208;11.174;2023-06-26T03:45:54;15.70;1.00
6178;DHT22;3122;48.208;11.174;2023-06-26T03:50:54;15.70;1.00
6178;DHT22;3122;48.208;11.174;2023-06-26T03:55:55;15.60;1.00
6178;DHT22;3122;48.208;11.174;2023-06-26T04:00:55;15.70;1.00
6178;DHT22;3122;48.208;11.174;2023-06-26T04:05:56;15.60;1.00
6178;DHT22;3122;48.208;11.174;2023-06-26T04:10:56;15.70;1.00
6178;DHT22;3122;48.208;11.174;2023-06-26T04:15:59;15.70;1.00
6178;DHT22;3122;48.208;11.174;2023-06-26T04:21:12;15.80;1.00
6178;DHT22;3122;48.208;11.174;2023-06-26T04:26:13;15.90;1.00
6178;DHT22;3122;48.208;11.174;2023-06-26T04:31:14;16.10;1.00
6178;DHT22;3122;48.208;11.174;2023-06-26T04:36:15;16.20;1.00
6178;DHT22;3122;48.208;11.174;2023-06-26T04:41:16;16.50;1.00
6178;DHT22;3122;48.208;11.174;2023-06-26T04:46:17;16.70;1.00
6178;DHT22;3122;48.208;11.174;2023-06-26T04:51:17;16.90;1.00
6178;DHT22;3122;48.208;11.174;2023-06-26T04:56:21;17.00;1.00
6178;DHT22;3122;48.208;11.174;2023-06-26T05:01:21;17.20;1.00
6178;DHT22;3122;48.208;11.174;2023-06-26T05:06:22;17.40;1.00
6178;DHT22;3122;48.208;11.174;2023-06-26T05:11:24;17.60;1.00
6178;DHT22;3122;48.208;11.174;2023-06-26T05:16:25;17.70;1.00
6178;DHT22;3122;48.208;11.174;2023-06-26T05:21:26;17.80;1.00
6178;DHT22;3122;48.208;11.174;2023-06-26T05:26:27;18.00;1.00
6178;DHT22;3122;48.208;11.174;2023-06-26T05:31:28;18.20;1.00
6178;DHT22;3122;48.208;11.174;2023-06-26T05:36:29;18.40;1.00
6178;DHT22;3122;48.208;11.174;2023-06-26T05:41:31;18.50;1.00
6178;DHT22;3122;48.208;11.174;2023-06-26T05:46:31;18.80;1.00
6178;DHT22;3122;48.208;11.174;2023-06-26T05:51:32;19.00;1.00
6178;DHT22;3122;48.208;11.174;2023-06-26T05:56:33;19.30;1.00
6178;DHT22;3122;48.208;11.174;2023-06-26T06:01:34;19.60;1.00
6178;DHT22;3122;48.208;11.174;2023-06-26T06:06:35;19.90;1.00
6178;DHT22;3122;48.208;11.174;2023-06-26T06:11:36;20.20;1.00
6178;DHT22;3122;48.208;11.174;2023-06-26T06:16:37;20.50;1.00
6178;DHT22;3122;48.208;11.174;2023-06-26T06:21:38;20.80;1.00
6178;DHT22;3122;48.208;11.174;2023-06-26T06:26:38;21.10;1.00
6178;DHT22;3122;48.208;11.174;2023-06-26T06:31:39;21.50;1.00
6178;DHT22;3122;48.208;11.174;2023-06-26T06:36:39;21.80;1.00
6178;DHT22;3122;48.208;11.174;2023-06-26T06:41:40;22.00;1.00
6178;DHT22;3122;48.208;11.174;2023-06-26T06:46:40;22.20;1.00
6178;DHT22;3122;48.208;11.174;2023-06-26T06:51:41;22.30;1.00
6178;DHT22;3122;48.208;11.174;2023-06-26T06:56:42;22.40;1.00
6178;DHT22;3122;48.208;11.174;2023-06-26T07:01:42;22.50;1.00
6178;DHT22;3122;48.208;11.174;2023-06-26T07:06:43;22.70;1.00
6178;DHT22;3122;48.208;11.174;2023-06-26T07:11:43;22.80;1.00
6178;DHT22;3122;48.208;11.174;2023-06-26T07:16:44;23.00;1.00
6178;DHT22;3122;48.208;11.174;2023-06-26T07:21:45;23.10;1.00
6178;DHT22;3122;48.208;11.174;2023-06-26T07:26:46;23.20;1.00
6178;DHT22;3122;48.208;11.174;2023-06-26T07:31:47;23.40;1.00
6178;DHT22;3122;48.208;11.174;2023-06-26T07:36:48;23.60;1.00
6178;DHT22;3122;48.208;11.174;2023-06-26T07:41:49;23.60;1.00
6178;DHT22;3122;48.208;11.174;2023-06-26T07:46:49;23.90;1.00
6178;DHT22;3122;48.208;11.174;2023-06-26T07:51:50;24.30;1.00
6178;DHT22;3122;48.208;11.174;2023-06-26T07:56:58;24.60;1.00
6178;DHT22;3122;48.208;11.174;2023-06-26T08:01:59;24.70;1.00
6178;DHT22;3122;48.208;11.174;2023-06-26T08:07:00;24.80;1.00
6178;DHT22;3122;48.208;11.174;2023-06-26T08:12:02;25.20;1.00
6178;DHT22;3122;48.208;11.174;2023-06-26T08:17:02;25.30;1.00
6178;DHT22;3122;48.208;11.174;2023-06-26T08:22:03;25.50;1.00
6178;DHT22;3122;48.208;11.174;2023-06-26T08:27:04;25.70;1.00
6178;DHT22;3122;48.208;11.174;2023-06-26T08:32:05;25.60;1.00
6178;DHT22;3122;48.208;11.174;2023-06-26T08:37:05;25.90;1.00
6178;DHT22;3122;48.208;11.174;2023-06-26T08:42:09;26.10;1.00
6178;DHT22;3122;48.208;11.174;2023-06-26T08:47:11;26.50;1.00
6178;DHT22;3122;48.208;11.174;2023-06-26T08:52:17;26.70;1.00
6178;DHT22;3122;48.208;11.174;2023-06-26T08:57:22;26.80;1.00
6178;DHT22;3122;48.208;11.174;2023-06-26T09:02:23;27.00;1.00
6178;DHT22;3122;48.208;11.174;2023-06-26T09:07:24;27.20;1.00
6178;DHT22;3122;48.208;11.174;2023-06-26T09:12:27;27.30;1.00
6178;DHT22;3122;48.208;11.174;2023-06-26T09:17:34;27.60;1.00
6178;DHT22;3122;48.208;11.174;2023-06-26T09:22:40;27.80;1.00
6178;DHT22;3122;48.208;11.174;2023-06-26T09:27:43;27.90;1.00
6178;DHT22;3122;48.208;11.174;2023-06-26T09:32:43;27.60;1.00
6178;DHT22;3122;48.208;11.174;2023-06-26T09:37:44;27.50;1.00
6178;DHT22;3122;48.208;11.174;2023-06-26T09:42:45;27.80;1.00
6178;DHT22;3122;48.208;11.174;2023-06-26T09:47:45;27.90;1.00
6178;DHT22;3122;48.208;11.174;2023-06-26T09:52:46;28.40;1.00
6178;DHT22;3122;48.208;11.174;2023-06-26T09:57:49;28.40;1.00
6178;DHT22;3122;48.208;11.174;2023-06-26T10:02:50;28.40;1.00
6178;DHT22;3122;48.208;11.174;2023-06-26T10:07:51;28.60;1.00
6178;DHT22;3122;48.208;11.174;2023-06-26T10:12:58;28.60;1.00
6178;DHT22;3122;48.208;11.174;2023-06-26T10:17:59;28.30;1.00
6178;DHT22;3122;48.208;11.174;2023-06-26T10:23:01;28.20;1.00
6178;DHT22;3122;48.208;11.174;2023-06-26T10:28:03;28.80;1.00
6178;DHT22;3122;48.208;11.174;2023-06-26T10:33:05;29.10;1.00
6178;DHT22;3122;48.208;11.174;2023-06-26T10:38:06;29.30;1.00
6178;DHT22;3122;48.208;11.174;2023-06-26T10:43:10;29.30;1.00
6178;DHT22;3122;48.208;11.174;2023-06-26T10:48:15;29.20;1.00
6178;DHT22;3122;48.208;11.174;2023-06-26T10:58:41;29.30;1.00
6178;DHT22;3122;48.208;11.174;2023-06-26T11:03:45;29.20;1.00
6178;DHT22;3122;48.208;11.174;2023-06-26T11:08:53;29.00;1.00
6178;DHT22;3122;48.208;11.174;2023-06-26T11:13:54;29.50;1.00
6178;DHT22;3122;48.208;11.174;2023-06-26T11:18:58;29.50;1.00
6178;DHT22;3122;48.208;11.174;2023-06-26T11:23:59;29.80;1.00
6178;DHT22;3122;48.208;11.174;2023-06-26T11:29:02;29.70;1.00
6178;DHT22;3122;48.208;11.174;2023-06-26T11:34:04;30.10;1.00
6178;DHT22;3122;48.208;11.174;2023-06-26T11:39:06;30.10;1.00
6178;DHT22;3122;48.208;11.174;2023-06-26T11:44:08;30.20;1.00
6178;DHT22;3122;48.208;11.174;2023-06-26T11:49:10;30.40;1.00
6178;DHT22;3122;48.208;11.174;2023-06-26T11:54:10;30.30;1.00
6178;DHT22;3122;48.208;11.174;2023-06-26T11:59:12;30.20;1.00
6178;DHT22;3122;48.208;11.174;2023-06-26T12:04:16;30.10;1.00
6178;DHT22;3122;48.208;11.174;2023-06-26T12:09:18;30.00;1.00
6178;DHT22;3122;48.208;11.174;2023-06-26T12:14:20;30.30;1.00
6178;DHT22;3122;48.208;11.174;2023-06-26T12:19:25;30.40;1.00
6178;DHT22;3122;48.208;11.174;2023-06-26T12:24:27;30.60;1.00
6178;DHT22;3122;48.208;11.174;2023-06-26T12:29:34;30.70;1.00
6178;DHT22;3122;48.208;11.174;2023-06-26T12:34:37;30.60;1.00
6178;DHT22;3122;48.208;11.174;2023-06-26T12:39:49;30.70;1.00
6178;DHT22;3122;48.208;11.174;2023-06-26T12:44:51;30.70;1.00
6178;DHT22;3122;48.208;11.174;2023-06-26T12:49:52;30.70;1.00
6178;DHT22;3122;48.208;11.174;2023-06-26T12:54:54;30.10;1.00
6178;DHT22;3122;48.208;11.174;2023-06-26T12:59:56;30.10;1.00
6178;DHT22;3122;48.208;11.174;2023-06-26T13:04:56;30.70;1.00
6178;DHT22;3122;48.208;11.174;2023-06-26T13:09:57;30.60;1.00
6178;DHT22;3122;48.208;11.174;2023-06-26T13:14:57;30.30;1.00
6178;DHT22;3122;48.208;11.174;2023-06-26T13:19:58;30.40;1.00
6178;DHT22;3122;48.208;11.174;2023-06-26T13:24:58;30.40;1.00
6178;DHT22;3122;48.208;11.174;2023-06-26T13:29:59;30.50;1.00
6178;DHT22;3122;48.208;11.174;2023-06-26T13:35:00;30.60;1.00
6178;DHT22;3122;48.208;11.174;2023-06-26T13:40:01;30.70;1.00
6178;DHT22;3122;48.208;11.174;2023-06-26T13:45:03;31.00;1.00
6178;DHT22;3122;48.208;11.174;2023-06-26T13:50:04;30.70;1.00
6178;DHT22;3122;48.208;11.174;2023-06-26T13:55:06;30.60;1.00
6178;DHT22;3122;48.208;11.174;2023-06-26T14:00:09;30.00;1.00
6178;DHT22;3122;48.208;11.174;2023-06-26T14:05:10;30.40;1.00
6178;DHT22;3122;48.208;11.174;2023-06-26T14:10:11;31.00;1.00
6178;DHT22;3122;48.208;11.174;2023-06-26T14:15:11;31.60;1.00
6178;DHT22;3122;48.208;11.174;2023-06-26T14:20:12;31.20;1.00
6178;DHT22;3122;48.208;11.174;2023-06-26T14:25:13;31.20;1.00
6178;DHT22;3122;48.208;11.174;2023-06-26T14:30:14;31.20;1.00
6178;DHT22;3122;48.208;11.174;2023-06-26T14:35:14;30.70;1.00
6178;DHT22;3122;48.208;11.174;2023-06-26T14:40:15;31.10;1.00
6178;DHT22;3122;48.208;11.174;2023-06-26T14:45:15;30.90;1.00
6178;DHT22;3122;48.208;11.174;2023-06-26T14:50:16;30.40;1.00
6178;DHT22;3122;48.208;11.174;2023-06-26T14:55:16;29.90;1.00
6178;DHT22;3122;48.208;11.174;2023-06-26T15:00:17;29.70;1.00
6178;DHT22;3122;48.208;11.174;2023-06-26T15:05:19;29.50;1.00
6178;DHT22;3122;48.208;11.174;2023-06-26T15:10:20;29.60;1.00
6178;DHT22;3122;48.208;11.174;2023-06-26T15:15:22;29.80;1.00
6178;DHT22;3122;48.208;11.174;2023-06-26T15:20:22;29.70;1.00
6178;DHT22;3122;48.208;11.174;2023-06-26T15:25:23;29.60;1.00
6178;DHT22;3122;48.208;11.174;2023-06-26T15:30:24;28.90;1.00
6178;DHT22;3122;48.208;11.174;2023-06-26T15:35:24;28.10;1.00
6178;DHT22;3122;48.208;11.174;2023-06-26T15:40:25;27.60;1.00
6178;DHT22;3122;48.208;11.174;2023-06-26T15:45:25;27.90;1.00
6178;DHT22;3122;48.208;11.174;2023-06-26T15:50:26;28.40;1.00
6178;DHT22;3122;48.208;11.174;2023-06-26T15:55:28;28.20;1.00
6178;DHT22;3122;48.208;11.174;2023-06-26T16:00:29;28.20;1.00
6178;DHT22;3122;48.208;11.174;2023-06-26T16:05:29;28.10;1.00
6178;DHT22;3122;48.208;11.174;2023-06-26T16:10:30;28.00;1.00
6178;DHT22;3122;48.208;11.174;2023-06-26T16:15:30;27.80;1.00
6178;DHT22;3122;48.208;11.174;2023-06-26T16:20:31;27.60;1.00
6178;DHT22;3122;48.208;11.174;2023-06-26T16:25:32;27.30;1.00
6178;DHT22;3122;48.208;11.174;2023-06-26T16:30:32;27.20;1.00
6178;DHT22;3122;48.208;11.174;2023-06-26T16:35:33;27.10;1.00
6178;DHT22;3122;48.208;11.174;2023-06-26T16:40:37;26.80;1.00
6178;DHT22;3122;48.208;11.174;2023-06-26T16:45:37;26.70;1.00
6178;DHT22;3122;48.208;11.174;2023-06-26T16:50:38;26.60;1.00
6178;DHT22;3122;48.208;11.174;2023-06-26T16:55:38;26.10;1.00
6178;DHT22;3122;48.208;11.174;2023-06-26T17:00:39;26.00;1.00
6178;DHT22;3122;48.208;11.174;2023-06-26T17:05:40;25.70;1.00
6178;DHT22;3122;48.208;11.174;2023-06-26T17:10:40;25.40;1.00
6178;DHT22;3122;48.208;11.174;2023-06-26T17:15:42;25.30;1.00
6178;DHT22;3122;48.208;11.174;2023-06-26T17:20:43;25.20;1.00
6178;DHT22;3122;48.208;11.174;2023-06-26T17:25:43;24.90;1.00
6178;DHT22;3122;48.208;11.174;2023-06-26T17:30:44;24.50;1.00
6178;DHT22;3122;48.208;11.174;2023-06-26T17:35:45;23.90;1.00
6178;DHT22;3122;48.208;11.174;2023-06-26T17:40:46;24.10;1.00
6178;DHT22;3122;48.208;11.174;2023-06-26T17:45:47;23.90;1.00
6178;DHT22;3122;48.208;11.174;2023-06-26T17:50:48;23.50;1.00
6178;DHT22;3122;48.208;11.174;2023-06-26T17:55:49;23.60;1.00
6178;DHT22;3122;48.208;11.174;2023-06-26T18:00:50;23.60;1.00
6178;DHT22;3122;48.208;11.174;2023-06-26T18:05:50;23.50;1.00
6178;DHT22;3122;48.208;11.174;2023-06-26T18:10:51;23.20;1.00
6178;DHT22;3122;48.208;11.174;2023-06-26T18:15:52;23.30;1.00
6178;DHT22;3122;48.208;11.174;2023-06-26T18:20:52;23.10;1.00
6178;DHT22;3122;48.208;11.174;2023-06-26T18:25:53;23.10;1.00
6178;DHT22;3122;48.208;11.174;2023-06-26T18:30:54;23.10;1.00
6178;DHT22;3122;48.208;11.174;2023-06-26T18:35:54;23.00;1.00
6178;DHT22;3122;48.208;11.174;2023-06-26T18:40:55;23.20;1.00
6178;DHT22;3122;48.208;11.174;2023-06-26T18:45:56;23.60;1.00
6178;DHT22;3122;48.208;11.174;2023-06-26T18:50:57;22.60;1.00
6178;DHT22;3122;48.208;11.174;2023-06-26T18:55:58;22.30;1.00
6178;DHT22;3122;48.208;11.174;2023-06-26T19:00:58;22.10;1.00
6178;DHT22;3122;48.208;11.174;2023-06-26T19:05:59;21.90;1.00
6178;DHT22;3122;48.208;11.174;2023-06-26T19:10:59;21.90;1.00
6178;DHT22;3122;48.208;11.174;2023-06-26T19:16:00;21.80;1.00
6178;DHT22;3122;48.208;11.174;2023-06-26T19:21:01;21.60;1.00
6178;DHT22;3122;48.208;11.174;2023-06-26T19:26:01;21.60;1.00
6178;DHT22;3122;48.208;11.174;2023-06-26T19:31:02;21.50;1.00
6178;DHT22;3122;48.208;11.174;2023-06-26T19:36:03;21.50;1.00
6178;DHT22;3122;48.208;11.174;2023-06-26T19:41:03;21.30;1.00
6178;DHT22;3122;48.208;11.174;2023-06-26T19:46:04;21.20;1.00
6178;DHT22;3122;48.208;11.174;2023-06-26T19:51:04;21.20;1.00
6178;DHT22;3122;48.208;11.174;2023-06-26T19:56:06;21.20;1.00
6178;DHT22;3122;48.208;11.174;2023-06-26T20:01:07;20.90;1.00
6178;DHT22;3122;48.208;11.174;2023-06-26T20:06:08;20.90;1.00
6178;DHT22;3122;48.208;11.174;2023-06-26T20:11:08;20.90;1.00
6178;DHT22;3122;48.208;11.174;2023-06-26T20:16:09;20.80;1.00
6178;DHT22;3122;48.208;11.174;2023-06-26T20:21:09;20.80;1.00
6178;DHT22;3122;48.208;11.174;2023-06-26T20:26:11;20.80;1.00
6178;DHT22;3122;48.208;11.174;2023-06-26T20:31:12;20.80;1.00
6178;DHT22;3122;48.208;11.174;2023-06-26T20:36:13;20.70;1.00
6178;DHT22;3122;48.208;11.174;2023-06-26T20:41:13;20.40;1.00
6178;DHT22;3122;48.208;11.174;2023-06-26T20:46:14;20.40;1.00
6178;DHT22;3122;48.208;11.174;2023-06-26T20:51:18;20.20;1.00
6178;DHT22;3122;48.208;11.174;2023-06-26T20:56:22;20.20;1.00
6178;DHT22;3122;48.208;11.174;2023-06-26T21:01:24;20.10;1.00
6178;DHT22;3122;48.208;11.174;2023-06-26T21:06:25;20.20;1.00
6178;DHT22;3122;48.208;11.174;2023-06-26T21:11:26;20.10;1.00
6178;DHT22;3122;48.208;11.174;2023-06-26T21:16:26;20.00;1.00
6178;DHT22;3122;48.208;11.174;2023-06-26T21:21:27;19.80;1.00
6178;DHT22;3122;48.208;11.174;2023-06-26T21:26:28;19.80;1.00
6178;DHT22;3122;48.208;11.174;2023-06-26T21:31:28;19.70;1.00
6178;DHT22;3122;48.208;11.174;2023-06-26T21:36:29;19.70;1.00
6178;DHT22;3122;48.208;11.174;2023-06-26T21:41:29;19.80;1.00
6178;DHT22;3122;48.208;11.174;2023-06-26T21:46:30;19.70;1.00
6178;DHT22;3122;48.208;11.174;2023-06-26T21:51:30;19.80;1.00
6178;DHT22;3122;48.208;11.174;2023-06-26T21:56:31;19.80;1.00
6178;DHT22;3122;48.208;11.174;2023-06-26T22:01:33;19.70;1.00
6178;DHT22;3122;48.208;11.174;2023-06-26T22:06:33;19.70;1.00
6178;DHT22;3122;48.208;11.174;2023-06-26T22:11:34;19.60;1.00
6178;DHT22;3122;48.208;11.174;2023-06-26T22:16:34;19.60;1.00
6178;DHT22;3122;48.208;11.174;2023-06-26T22:21:35;19.50;1.00
6178;DHT22;3122;48.208;11.174;2023-06-26T22:26:36;19.50;1.00
6178;DHT22;3122;48.208;11.174;2023-06-26T22:31:36;19.40;1.00
6178;DHT22;3122;48.208;11.174;2023-06-26T22:36:37;19.40;1.00
6178;DHT22;3122;48.208;11.174;2023-06-26T22:41:38;19.20;1.00
6178;DHT22;3122;48.208;11.174;2023-06-26T22:46:38;19.20;1.00
6178;DHT22;3122;48.208;11.174;2023-06-26T22:51:39;19.10;1.00
6178;DHT22;3122;48.208;11.174;2023-06-26T22:56:39;19.00;1.00
6178;DHT22;3122;48.208;11.174;2023-06-26T23:01:40;18.90;1.00
6178;DHT22;3122;48.208;11.174;2023-06-26T23:06:41;18.90;1.00
6178;DHT22;3122;48.208;11.174;2023-06-26T23:11:45;18.90;1.00
6178;DHT22;3122;48.208;11.174;2023-06-26T23:16:50;18.80;1.00
6178;DHT22;3122;48.208;11.174;2023-06-26T23:22:04;18.60;1.00
6178;DHT22;3122;48.208;11.174;2023-06-26T23:27:09;18.60;1.00
6178;DHT22;3122;48.208;11.174;2023-06-26T23:32:10;18.60;1.00
6178;DHT22;3122;48.208;11.174;2023-06-26T23:37:11;18.50;1.00
6178;DHT22;3122;48.208;11.174;2023-06-26T23:42:12;18.40;1.00
6178;DHT22;3122;48.208;11.174;2023-06-26T23:47:16;18.30;1.00
6178;DHT22;3122;48.208;11.174;2023-06-26T23:52:18;18.20;1.00
6178;DHT22;3122;48.208;11.174;2023-06-26T23:57:18;18.00;1.00
